KALS/ALS METAR and TAF weather

Enter ICAO airport designator
Station Type Date Time Source
KALS METAR 2018/01/16 09:08 UTC NOAA

KALS 160908Z AUTO 14003KT 10SM OVC009 M14/M16 A3033 RMK AO2 T11391161


Station Type Date Time Source
KALS Decoded METAR 2018/01/16 09:08 UTC NOAA

SAN LUIS VALLEY REGIONAL, CO, United States (KALS) 37-26N 105-52W 2299M
Jan 16, 2018 - 04:08 AM EST / 2018.01.16 0908 UTC
Wind: from the SE (140 degrees) at 3 MPH (3 KT):0
Visibility: 10 mile(s):0
Sky conditions: overcast
Temperature: 7.0 F (-13.9 C)
Dew Point: 3.0 F (-16.1 C)
Relative Humidity: 83%
Pressure (altimeter): 30.33 in. Hg (1027 hPa)
ob: KALS 160908Z AUTO 14003KT 10SM OVC009 M14/M16 A3033 RMK AO2 T11391161
cycle: 9

Station Type Date Time Source
KALS TAF 2018/01/16 06:36 UTC NOAA

TAF KALS 160534Z 1606/1706 VRB05KT P6SM FEW200


Example: see airport list